sensor_id;sensor_type;location;lat;lon;timestamp;temperature;humidity
13794;DHT22;31160;49.500;7.772;2023-04-06T00:00:37;1.00;99.90
13794;DHT22;31160;49.500;7.772;2023-04-06T00:03:03;1.00;99.90
13794;DHT22;31160;49.500;7.772;2023-04-06T00:05:30;0.90;99.90
13794;DHT22;31160;49.500;7.772;2023-04-06T00:07:58;0.90;99.90
13794;DHT22;31160;49.500;7.772;2023-04-06T00:10:25;0.90;99.90
13794;DHT22;31160;49.500;7.772;2023-04-06T00:12:54;1.00;99.90
13794;DHT22;31160;49.500;7.772;2023-04-06T00:15:23;1.00;99.90
13794;DHT22;31160;49.500;7.772;2023-04-06T00:17:49;1.00;99.90
13794;DHT22;31160;49.500;7.772;2023-04-06T00:20:17;0.90;99.90
13794;DHT22;31160;49.500;7.772;2023-04-06T00:22:44;0.90;99.90
13794;DHT22;31160;49.500;7.772;2023-04-06T00:25:11;0.90;99.90
13794;DHT22;31160;49.500;7.772;2023-04-06T00:27:38;0.90;99.90
13794;DHT22;31160;49.500;7.772;2023-04-06T00:30:05;0.90;99.90
13794;DHT22;31160;49.500;7.772;2023-04-06T00:32:33;0.90;99.90
13794;DHT22;31160;49.500;7.772;2023-04-06T00:35:02;0.80;99.90
13794;DHT22;31160;49.500;7.772;2023-04-06T00:37:29;0.80;99.90
13794;DHT22;31160;49.500;7.772;2023-04-06T00:39:56;0.80;99.90
13794;DHT22;31160;49.500;7.772;2023-04-06T00:42:23;0.80;99.90
13794;DHT22;31160;49.500;7.772;2023-04-06T00:45:00;0.80;99.90
13794;DHT22;31160;49.500;7.772;2023-04-06T00:47:28;0.70;99.90
13794;DHT22;31160;49.500;7.772;2023-04-06T00:49:56;0.70;99.90
13794;DHT22;31160;49.500;7.772;2023-04-06T00:52:23;0.70;99.90
13794;DHT22;31160;49.500;7.772;2023-04-06T00:54:50;0.70;99.90
13794;DHT22;31160;49.500;7.772;2023-04-06T00:57:19;0.70;99.90
13794;DHT22;31160;49.500;7.772;2023-04-06T00:59:53;0.70;99.90
13794;DHT22;31160;49.500;7.772;2023-04-06T01:02:20;0.60;99.90
13794;DHT22;31160;49.500;7.772;2023-04-06T01:04:50;0.50;99.90
13794;DHT22;31160;49.500;7.772;2023-04-06T01:07:38;0.40;99.90
13794;DHT22;31160;49.500;7.772;2023-04-06T01:10:10;0.50;99.90
13794;DHT22;31160;49.500;7.772;2023-04-06T01:12:37;0.50;99.90
13794;DHT22;31160;49.500;7.772;2023-04-06T01:15:12;0.50;99.90
13794;DHT22;31160;49.500;7.772;2023-04-06T01:17:42;0.60;99.90
13794;DHT22;31160;49.500;7.772;2023-04-06T01:20:13;0.60;99.90
13794;DHT22;31160;49.500;7.772;2023-04-06T01:22:40;0.60;99.90
13794;DHT22;31160;49.500;7.772;2023-04-06T01:25:08;0.50;99.90
13794;DHT22;31160;49.500;7.772;2023-04-06T01:27:44;0.40;99.90
13794;DHT22;31160;49.500;7.772;2023-04-06T01:30:12;0.40;99.90
13794;DHT22;31160;49.500;7.772;2023-04-06T01:32:46;0.30;99.90
13794;DHT22;31160;49.500;7.772;2023-04-06T01:35:18;0.30;99.90
13794;DHT22;31160;49.500;7.772;2023-04-06T01:37:55;0.30;99.90
13794;DHT22;31160;49.500;7.772;2023-04-06T01:40:28;0.30;99.90
13794;DHT22;31160;49.500;7.772;2023-04-06T01:42:55;0.20;99.90
13794;DHT22;31160;49.500;7.772;2023-04-06T01:45:30;0.20;99.90
13794;DHT22;31160;49.500;7.772;2023-04-06T01:48:04;0.20;99.90
13794;DHT22;31160;49.500;7.772;2023-04-06T01:50:31;0.20;99.90
13794;DHT22;31160;49.500;7.772;2023-04-06T01:52:58;0.30;99.90
13794;DHT22;31160;49.500;7.772;2023-04-06T01:55:26;0.20;99.90
13794;DHT22;31160;49.500;7.772;2023-04-06T01:58:13;0.20;99.90
13794;DHT22;31160;49.500;7.772;2023-04-06T02:00:40;0.20;99.90
13794;DHT22;31160;49.500;7.772;2023-04-06T02:03:08;0.20;99.90
13794;DHT22;31160;49.500;7.772;2023-04-06T02:05:35;0.10;99.90
13794;DHT22;31160;49.500;7.772;2023-04-06T02:08:15;0.10;99.90
13794;DHT22;31160;49.500;7.772;2023-04-06T02:10:42;0.10;99.90
13794;DHT22;31160;49.500;7.772;2023-04-06T02:13:18;0.10;99.90
13794;DHT22;31160;49.500;7.772;2023-04-06T02:15:48;0.10;99.90
13794;DHT22;31160;49.500;7.772;2023-04-06T02:18:15;0.10;99.90
13794;DHT22;31160;49.500;7.772;2023-04-06T02:20:44;0.10;99.90
13794;DHT22;31160;49.500;7.772;2023-04-06T02:23:12;0.00;99.90
13794;DHT22;31160;49.500;7.772;2023-04-06T02:25:39;0.00;99.90
13794;DHT22;31160;49.500;7.772;2023-04-06T02:28:06;0.00;99.90
13794;DHT22;31160;49.500;7.772;2023-04-06T02:30:34;0.00;99.90
13794;DHT22;31160;49.500;7.772;2023-04-06T02:33:01;0.00;99.90
13794;DHT22;31160;49.500;7.772;2023-04-06T02:35:35;0.00;99.90
13794;DHT22;31160;49.500;7.772;2023-04-06T02:38:02;-0.10;99.90
13794;DHT22;31160;49.500;7.772;2023-04-06T02:40:29;-0.10;99.90
13794;DHT22;31160;49.500;7.772;2023-04-06T02:43:00;-0.20;99.90
13794;DHT22;31160;49.500;7.772;2023-04-06T02:45:30;-0.10;99.90
13794;DHT22;31160;49.500;7.772;2023-04-06T02:47:58;-0.10;99.90
13794;DHT22;31160;49.500;7.772;2023-04-06T02:50:26;-0.10;99.90
13794;DHT22;31160;49.500;7.772;2023-04-06T02:52:58;-0.10;99.90
13794;DHT22;31160;49.500;7.772;2023-04-06T02:55:26;-0.10;99.90
13794;DHT22;31160;49.500;7.772;2023-04-06T02:57:52;-0.10;99.90
13794;DHT22;31160;49.500;7.772;2023-04-06T03:00:24;-0.20;99.90
13794;DHT22;31160;49.500;7.772;2023-04-06T03:02:51;-0.20;99.90
13794;DHT22;31160;49.500;7.772;2023-04-06T03:05:18;-0.20;99.90
13794;DHT22;31160;49.500;7.772;2023-04-06T03:07:46;-0.20;99.90
13794;DHT22;31160;49.500;7.772;2023-04-06T03:10:20;-0.20;99.90
13794;DHT22;31160;49.500;7.772;2023-04-06T03:12:48;-0.30;99.90
13794;DHT22;31160;49.500;7.772;2023-04-06T03:15:23;-0.30;99.90
13794;DHT22;31160;49.500;7.772;2023-04-06T03:17:57;-0.30;99.90
13794;DHT22;31160;49.500;7.772;2023-04-06T03:20:42;-0.30;99.90
13794;DHT22;31160;49.500;7.772;2023-04-06T03:23:09;-0.30;99.90
13794;DHT22;31160;49.500;7.772;2023-04-06T03:25:40;-0.40;99.90
13794;DHT22;31160;49.500;7.772;2023-04-06T03:28:09;-0.50;99.90
13794;DHT22;31160;49.500;7.772;2023-04-06T03:30:45;-0.40;99.90
13794;DHT22;31160;49.500;7.772;2023-04-06T03:33:15;-0.40;99.90
13794;DHT22;31160;49.500;7.772;2023-04-06T03:35:50;-0.50;99.90
13794;DHT22;31160;49.500;7.772;2023-04-06T03:38:17;-0.50;99.90
13794;DHT22;31160;49.500;7.772;2023-04-06T03:40:44;-0.40;99.90
13794;DHT22;31160;49.500;7.772;2023-04-06T03:43:11;-0.40;99.90
13794;DHT22;31160;49.500;7.772;2023-04-06T03:45:39;-0.40;99.90
13794;DHT22;31160;49.500;7.772;2023-04-06T03:48:06;-0.40;99.90
13794;DHT22;31160;49.500;7.772;2023-04-06T03:50:35;-0.40;99.90
13794;DHT22;31160;49.500;7.772;2023-04-06T03:53:02;-0.40;99.90
13794;DHT22;31160;49.500;7.772;2023-04-06T03:55:32;-0.40;99.90
13794;DHT22;31160;49.500;7.772;2023-04-06T03:57:59;-0.50;99.90
13794;DHT22;31160;49.500;7.772;2023-04-06T04:00:27;-0.50;99.90
13794;DHT22;31160;49.500;7.772;2023-04-06T04:02:54;-0.50;99.90
13794;DHT22;31160;49.500;7.772;2023-04-06T04:05:21;-0.50;99.90
13794;DHT22;31160;49.500;7.772;2023-04-06T04:07:52;-0.50;99.90
13794;DHT22;31160;49.500;7.772;2023-04-06T04:10:22;-0.50;99.90
13794;DHT22;31160;49.500;7.772;2023-04-06T04:12:49;-0.60;99.90
13794;DHT22;31160;49.500;7.772;2023-04-06T04:15:16;-0.60;99.90
13794;DHT22;31160;49.500;7.772;2023-04-06T04:17:43;-0.60;99.90
13794;DHT22;31160;49.500;7.772;2023-04-06T04:20:13;-0.60;99.90
13794;DHT22;31160;49.500;7.772;2023-04-06T04:22:40;-0.60;99.90
13794;DHT22;31160;49.500;7.772;2023-04-06T04:25:08;-0.60;99.90
13794;DHT22;31160;49.500;7.772;2023-04-06T04:27:41;-0.60;99.90
13794;DHT22;31160;49.500;7.772;2023-04-06T04:30:08;-0.60;99.90
13794;DHT22;31160;49.500;7.772;2023-04-06T04:32:34;-0.70;99.90
13794;DHT22;31160;49.500;7.772;2023-04-06T04:35:04;-0.60;99.90
13794;DHT22;31160;49.500;7.772;2023-04-06T04:37:37;-0.70;99.90
13794;DHT22;31160;49.500;7.772;2023-04-06T04:40:04;-0.80;99.90
13794;DHT22;31160;49.500;7.772;2023-04-06T04:42:41;-0.80;99.90
13794;DHT22;31160;49.500;7.772;2023-04-06T04:45:13;-0.80;99.90
13794;DHT22;31160;49.500;7.772;2023-04-06T04:47:41;-0.80;99.90
13794;DHT22;31160;49.500;7.772;2023-04-06T04:50:09;-0.80;99.90
13794;DHT22;31160;49.500;7.772;2023-04-06T04:52:39;-0.80;99.90
13794;DHT22;31160;49.500;7.772;2023-04-06T04:55:13;-0.80;99.90
13794;DHT22;31160;49.500;7.772;2023-04-06T04:57:42;-0.80;99.90
13794;DHT22;31160;49.500;7.772;2023-04-06T05:00:10;-0.80;99.90
13794;DHT22;31160;49.500;7.772;2023-04-06T05:02:40;-0.80;99.90
13794;DHT22;31160;49.500;7.772;2023-04-06T05:05:20;-0.70;99.90
13794;DHT22;31160;49.500;7.772;2023-04-06T05:07:46;-0.70;99.90
13794;DHT22;31160;49.500;7.772;2023-04-06T05:10:24;-0.70;99.90
13794;DHT22;31160;49.500;7.772;2023-04-06T05:12:55;-0.60;99.90
13794;DHT22;31160;49.500;7.772;2023-04-06T05:15:22;-0.60;99.90
13794;DHT22;31160;49.500;7.772;2023-04-06T05:17:53;-0.50;99.90
13794;DHT22;31160;49.500;7.772;2023-04-06T05:20:25;-0.50;99.90
13794;DHT22;31160;49.500;7.772;2023-04-06T05:22:52;-0.50;99.90
13794;DHT22;31160;49.500;7.772;2023-04-06T05:25:19;-0.40;99.90
13794;DHT22;31160;49.500;7.772;2023-04-06T05:27:49;-0.30;99.90
13794;DHT22;31160;49.500;7.772;2023-04-06T05:30:37;-0.30;99.90
13794;DHT22;31160;49.500;7.772;2023-04-06T05:33:04;-0.30;99.90
13794;DHT22;31160;49.500;7.772;2023-04-06T05:35:44;-0.20;99.90
13794;DHT22;31160;49.500;7.772;2023-04-06T05:38:12;-0.20;99.90
13794;DHT22;31160;49.500;7.772;2023-04-06T05:40:39;-0.10;99.90
13794;DHT22;31160;49.500;7.772;2023-04-06T05:43:11;0.00;99.90
13794;DHT22;31160;49.500;7.772;2023-04-06T05:45:44;0.10;99.90
13794;DHT22;31160;49.500;7.772;2023-04-06T05:48:11;0.10;99.90
13794;DHT22;31160;49.500;7.772;2023-04-06T05:50:38;0.10;99.90
13794;DHT22;31160;49.500;7.772;2023-04-06T05:53:05;0.10;99.90
13794;DHT22;31160;49.500;7.772;2023-04-06T05:55:38;0.10;99.90
13794;DHT22;31160;49.500;7.772;2023-04-06T05:58:11;0.10;99.90
13794;DHT22;31160;49.500;7.772;2023-04-06T06:00:37;0.20;99.90
13794;DHT22;31160;49.500;7.772;2023-04-06T06:03:07;0.30;99.90
13794;DHT22;31160;49.500;7.772;2023-04-06T06:05:35;0.30;99.90
13794;DHT22;31160;49.500;7.772;2023-04-06T06:08:08;0.40;99.90
13794;DHT22;31160;49.500;7.772;2023-04-06T06:10:35;0.40;99.90
13794;DHT22;31160;49.500;7.772;2023-04-06T06:13:02;0.40;99.90
13794;DHT22;31160;49.500;7.772;2023-04-06T06:15:28;0.50;99.90
13794;DHT22;31160;49.500;7.772;2023-04-06T06:17:55;0.60;99.90
13794;DHT22;31160;49.500;7.772;2023-04-06T06:20:24;0.70;99.90
13794;DHT22;31160;49.500;7.772;2023-04-06T06:22:51;0.80;99.90
13794;DHT22;31160;49.500;7.772;2023-04-06T06:25:21;0.90;99.90
13794;DHT22;31160;49.500;7.772;2023-04-06T06:27:49;1.00;99.90
13794;DHT22;31160;49.500;7.772;2023-04-06T06:30:18;1.10;99.90
13794;DHT22;31160;49.500;7.772;2023-04-06T06:32:49;1.20;99.90
13794;DHT22;31160;49.500;7.772;2023-04-06T06:35:17;1.30;99.90
13794;DHT22;31160;49.500;7.772;2023-04-06T06:37:44;1.50;99.90
13794;DHT22;31160;49.500;7.772;2023-04-06T06:40:13;1.70;99.90
13794;DHT22;31160;49.500;7.772;2023-04-06T06:42:43;1.80;99.90
13794;DHT22;31160;49.500;7.772;2023-04-06T06:45:29;1.90;99.90
13794;DHT22;31160;49.500;7.772;2023-04-06T06:47:56;2.10;99.90
13794;DHT22;31160;49.500;7.772;2023-04-06T06:50:23;2.40;99.90
13794;DHT22;31160;49.500;7.772;2023-04-06T06:52:50;2.30;99.90
13794;DHT22;31160;49.500;7.772;2023-04-06T06:55:17;2.50;99.90
13794;DHT22;31160;49.500;7.772;2023-04-06T06:57:46;2.80;99.90
13794;DHT22;31160;49.500;7.772;2023-04-06T07:00:13;2.80;99.90
13794;DHT22;31160;49.500;7.772;2023-04-06T07:02:42;2.90;99.90
13794;DHT22;31160;49.500;7.772;2023-04-06T07:05:09;3.20;99.90
13794;DHT22;31160;49.500;7.772;2023-04-06T07:07:52;3.30;99.90
13794;DHT22;31160;49.500;7.772;2023-04-06T07:10:19;3.20;99.90
13794;DHT22;31160;49.500;7.772;2023-04-06T07:12:46;3.20;99.90
13794;DHT22;31160;49.500;7.772;2023-04-06T07:15:13;3.50;99.90
13794;DHT22;31160;49.500;7.772;2023-04-06T07:17:40;3.60;99.90
13794;DHT22;31160;49.500;7.772;2023-04-06T07:20:12;3.70;99.90
13794;DHT22;31160;49.500;7.772;2023-04-06T07:22:42;4.10;99.90
13794;DHT22;31160;49.500;7.772;2023-04-06T07:25:09;4.30;99.90
13794;DHT22;31160;49.500;7.772;2023-04-06T07:27:36;4.40;99.90
13794;DHT22;31160;49.500;7.772;2023-04-06T07:30:03;4.80;99.90
13794;DHT22;31160;49.500;7.772;2023-04-06T07:32:30;5.00;99.90
13794;DHT22;31160;49.500;7.772;2023-04-06T07:34:57;5.20;99.90
13794;DHT22;31160;49.500;7.772;2023-04-06T07:37:24;5.10;99.90
13794;DHT22;31160;49.500;7.772;2023-04-06T07:39:52;5.40;99.90
13794;DHT22;31160;49.500;7.772;2023-04-06T07:42:18;5.60;99.90
13794;DHT22;31160;49.500;7.772;2023-04-06T07:44:47;5.70;99.80
13794;DHT22;31160;49.500;7.772;2023-04-06T07:47:14;6.00;99.10
13794;DHT22;31160;49.500;7.772;2023-04-06T07:49:42;5.90;98.90
13794;DHT22;31160;49.500;7.772;2023-04-06T07:52:09;5.90;98.90
13794;DHT22;31160;49.500;7.772;2023-04-06T07:54:36;6.00;99.10
13794;DHT22;31160;49.500;7.772;2023-04-06T07:57:03;6.10;98.70
13794;DHT22;31160;49.500;7.772;2023-04-06T07:59:29;5.80;99.80
13794;DHT22;31160;49.500;7.772;2023-04-06T08:01:56;5.90;99.70
13794;DHT22;31160;49.500;7.772;2023-04-06T08:04:23;6.00;99.80
13794;DHT22;31160;49.500;7.772;2023-04-06T08:06:50;6.00;99.80
13794;DHT22;31160;49.500;7.772;2023-04-06T08:09:16;6.20;99.00
13794;DHT22;31160;49.500;7.772;2023-04-06T08:11:43;6.50;98.60
13794;DHT22;31160;49.500;7.772;2023-04-06T08:14:12;6.80;98.30
13794;DHT22;31160;49.500;7.772;2023-04-06T08:16:39;7.10;97.40
13794;DHT22;31160;49.500;7.772;2023-04-06T08:19:06;7.10;97.10
13794;DHT22;31160;49.500;7.772;2023-04-06T08:21:35;7.30;97.10
13794;DHT22;31160;49.500;7.772;2023-04-06T08:24:02;7.50;96.70
13794;DHT22;31160;49.500;7.772;2023-04-06T08:26:29;7.50;94.90
13794;DHT22;31160;49.500;7.772;2023-04-06T08:28:56;7.70;95.50
13794;DHT22;31160;49.500;7.772;2023-04-06T08:31:23;8.00;94.40
13794;DHT22;31160;49.500;7.772;2023-04-06T08:33:50;8.00;94.70
13794;DHT22;31160;49.500;7.772;2023-04-06T08:36:16;8.20;94.50
13794;DHT22;31160;49.500;7.772;2023-04-06T08:38:46;8.50;93.70
13794;DHT22;31160;49.500;7.772;2023-04-06T08:41:13;8.70;93.70
13794;DHT22;31160;49.500;7.772;2023-04-06T08:43:47;8.70;92.90
13794;DHT22;31160;49.500;7.772;2023-04-06T08:46:15;8.90;92.50
13794;DHT22;31160;49.500;7.772;2023-04-06T08:48:42;8.70;92.70
13794;DHT22;31160;49.500;7.772;2023-04-06T08:51:10;8.80;92.80
13794;DHT22;31160;49.500;7.772;2023-04-06T08:53:37;9.00;92.50
13794;DHT22;31160;49.500;7.772;2023-04-06T08:56:05;8.90;92.60
13794;DHT22;31160;49.500;7.772;2023-04-06T08:58:35;9.20;92.90
13794;DHT22;31160;49.500;7.772;2023-04-06T09:01:09;9.30;91.90
13794;DHT22;31160;49.500;7.772;2023-04-06T09:03:39;9.60;91.10
13794;DHT22;31160;49.500;7.772;2023-04-06T09:06:07;9.90;90.90
13794;DHT22;31160;49.500;7.772;2023-04-06T09:08:35;10.10;91.10
13794;DHT22;31160;49.500;7.772;2023-04-06T09:11:02;10.30;91.20
13794;DHT22;31160;49.500;7.772;2023-04-06T09:13:30;10.30;90.20
13794;DHT22;31160;49.500;7.772;2023-04-06T09:16:04;10.30;90.40
13794;DHT22;31160;49.500;7.772;2023-04-06T09:18:33;10.20;90.60
13794;DHT22;31160;49.500;7.772;2023-04-06T09:21:01;10.30;90.20
13794;DHT22;31160;49.500;7.772;2023-04-06T09:23:29;10.40;89.70
13794;DHT22;31160;49.500;7.772;2023-04-06T09:26:16;10.40;87.50
13794;DHT22;31160;49.500;7.772;2023-04-06T09:28:52;10.50;86.70
13794;DHT22;31160;49.500;7.772;2023-04-06T09:31:23;10.60;86.00
13794;DHT22;31160;49.500;7.772;2023-04-06T09:33:50;10.50;83.20
13794;DHT22;31160;49.500;7.772;2023-04-06T09:36:18;10.70;82.90
13794;DHT22;31160;49.500;7.772;2023-04-06T09:38:57;10.90;82.80
13794;DHT22;31160;49.500;7.772;2023-04-06T09:44:06;11.30;80.70
13794;DHT22;31160;49.500;7.772;2023-04-06T09:46:36;11.40;78.30
13794;DHT22;31160;49.500;7.772;2023-04-06T09:49:24;11.60;78.50
13794;DHT22;31160;49.500;7.772;2023-04-06T09:51:56;11.80;77.90
13794;DHT22;31160;49.500;7.772;2023-04-06T09:54:28;11.90;76.70
13794;DHT22;31160;49.500;7.772;2023-04-06T09:57:25;11.90;76.10
13794;DHT22;31160;49.500;7.772;2023-04-06T10:00:06;11.60;76.80
13794;DHT22;31160;49.500;7.772;2023-04-06T10:02:58;11.70;76.90
13794;DHT22;31160;49.500;7.772;2023-04-06T10:08:11;11.70;76.60
13794;DHT22;31160;49.500;7.772;2023-04-06T10:10:38;11.90;75.20
13794;DHT22;31160;49.500;7.772;2023-04-06T10:13:05;12.20;74.10
13794;DHT22;31160;49.500;7.772;2023-04-06T10:15:33;12.30;72.60
13794;DHT22;31160;49.500;7.772;2023-04-06T10:18:01;12.20;72.20
13794;DHT22;31160;49.500;7.772;2023-04-06T10:20:40;12.40;71.60
13794;DHT22;31160;49.500;7.772;2023-04-06T10:23:15;12.70;70.60
13794;DHT22;31160;49.500;7.772;2023-04-06T10:25:58;12.90;70.10
13794;DHT22;31160;49.500;7.772;2023-04-06T10:28:26;12.40;70.60
13794;DHT22;31160;49.500;7.772;2023-04-06T10:31:01;12.50;70.30
13794;DHT22;31160;49.500;7.772;2023-04-06T10:33:28;12.50;70.40
13794;DHT22;31160;49.500;7.772;2023-04-06T10:35:55;12.70;70.00
13794;DHT22;31160;49.500;7.772;2023-04-06T10:38:34;13.00;70.10
13794;DHT22;31160;49.500;7.772;2023-04-06T10:41:05;13.10;70.00
13794;DHT22;31160;49.500;7.772;2023-04-06T10:43:36;12.90;69.90
13794;DHT22;31160;49.500;7.772;2023-04-06T10:46:05;12.80;70.90
13794;DHT22;31160;49.500;7.772;2023-04-06T10:48:40;12.80;69.10
13794;DHT22;31160;49.500;7.772;2023-04-06T10:51:15;12.60;68.00
13794;DHT22;31160;49.500;7.772;2023-04-06T10:53:44;12.70;69.20
13794;DHT22;31160;49.500;7.772;2023-04-06T10:56:16;12.80;68.20
13794;DHT22;31160;49.500;7.772;2023-04-06T10:58:52;12.60;69.70
13794;DHT22;31160;49.500;7.772;2023-04-06T11:01:20;13.00;69.80
13794;DHT22;31160;49.500;7.772;2023-04-06T11:03:50;13.20;66.60
13794;DHT22;31160;49.500;7.772;2023-04-06T11:06:22;12.90;66.70
13794;DHT22;31160;49.500;7.772;2023-04-06T11:08:49;13.10;67.50
13794;DHT22;31160;49.500;7.772;2023-04-06T11:11:19;13.40;67.80
13794;DHT22;31160;49.500;7.772;2023-04-06T11:13:57;13.60;66.60
13794;DHT22;31160;49.500;7.772;2023-04-06T11:16:31;13.70;65.10
13794;DHT22;31160;49.500;7.772;2023-04-06T11:19:03;13.50;63.20
13794;DHT22;31160;49.500;7.772;2023-04-06T11:21:39;13.00;63.00
13794;DHT22;31160;49.500;7.772;2023-04-06T11:24:17;12.80;63.70
13794;DHT22;31160;49.500;7.772;2023-04-06T11:26:50;13.00;65.60
13794;DHT22;31160;49.500;7.772;2023-04-06T11:29:20;13.30;65.20
13794;DHT22;31160;49.500;7.772;2023-04-06T11:31:58;13.60;64.50
13794;DHT22;31160;49.500;7.772;2023-04-06T11:34:26;13.50;63.70
13794;DHT22;31160;49.500;7.772;2023-04-06T11:36:56;13.30;61.70
13794;DHT22;31160;49.500;7.772;2023-04-06T11:39:25;13.10;62.40
13794;DHT22;31160;49.500;7.772;2023-04-06T11:41:57;13.20;63.80
13794;DHT22;31160;49.500;7.772;2023-04-06T11:44:44;13.50;62.20
13794;DHT22;31160;49.500;7.772;2023-04-06T11:47:12;13.20;61.80
13794;DHT22;31160;49.500;7.772;2023-04-06T11:49:41;13.50;63.10
13794;DHT22;31160;49.500;7.772;2023-04-06T11:54:41;13.40;62.30
13794;DHT22;31160;49.500;7.772;2023-04-06T11:57:09;13.90;63.90
13794;DHT22;31160;49.500;7.772;2023-04-06T11:59:36;14.10;63.50
13794;DHT22;31160;49.500;7.772;2023-04-06T12:02:03;14.40;63.40
13794;DHT22;31160;49.500;7.772;2023-04-06T12:04:31;14.40;61.30
13794;DHT22;31160;49.500;7.772;2023-04-06T12:06:58;14.20;60.70
13794;DHT22;31160;49.500;7.772;2023-04-06T12:09:25;14.20;63.00
13794;DHT22;31160;49.500;7.772;2023-04-06T12:11:52;14.20;63.00
13794;DHT22;31160;49.500;7.772;2023-04-06T12:14:19;14.70;63.50
13794;DHT22;31160;49.500;7.772;2023-04-06T12:16:45;14.70;62.90
13794;DHT22;31160;49.500;7.772;2023-04-06T12:19:13;15.00;61.20
13794;DHT22;31160;49.500;7.772;2023-04-06T12:21:39;15.30;61.30
13794;DHT22;31160;49.500;7.772;2023-04-06T12:24:06;15.60;59.80
13794;DHT22;31160;49.500;7.772;2023-04-06T12:26:33;15.50;60.20
13794;DHT22;31160;49.500;7.772;2023-04-06T12:29:01;15.30;61.10
13794;DHT22;31160;49.500;7.772;2023-04-06T12:31:35;15.30;60.80
13794;DHT22;31160;49.500;7.772;2023-04-06T12:34:03;15.50;61.50
13794;DHT22;31160;49.500;7.772;2023-04-06T12:36:30;15.40;59.70
13794;DHT22;31160;49.500;7.772;2023-04-06T12:38:57;15.20;60.90
13794;DHT22;31160;49.500;7.772;2023-04-06T12:41:24;15.20;61.10
13794;DHT22;31160;49.500;7.772;2023-04-06T12:43:51;15.30;60.00
13794;DHT22;31160;49.500;7.772;2023-04-06T12:46:18;15.20;59.30
13794;DHT22;31160;49.500;7.772;2023-04-06T12:48:45;15.30;60.40
13794;DHT22;31160;49.500;7.772;2023-04-06T12:51:12;15.40;59.80
13794;DHT22;31160;49.500;7.772;2023-04-06T12:53:39;15.30;59.60
13794;DHT22;31160;49.500;7.772;2023-04-06T12:56:25;15.10;60.30
13794;DHT22;31160;49.500;7.772;2023-04-06T12:58:52;15.10;60.20
13794;DHT22;31160;49.500;7.772;2023-04-06T13:01:19;14.90;60.40
13794;DHT22;31160;49.500;7.772;2023-04-06T13:03:46;14.90;60.60
13794;DHT22;31160;49.500;7.772;2023-04-06T13:06:13;14.90;60.00
13794;DHT22;31160;49.500;7.772;2023-04-06T13:08:42;15.10;61.80
13794;DHT22;31160;49.500;7.772;2023-04-06T13:11:10;14.60;61.50
13794;DHT22;31160;49.500;7.772;2023-04-06T13:13:36;14.80;61.50
13794;DHT22;31160;49.500;7.772;2023-04-06T13:16:07;14.70;60.90
13794;DHT22;31160;49.500;7.772;2023-04-06T13:18:34;14.50;61.40
13794;DHT22;31160;49.500;7.772;2023-04-06T13:21:02;14.50;61.20
13794;DHT22;31160;49.500;7.772;2023-04-06T13:23:28;14.60;61.70
13794;DHT22;31160;49.500;7.772;2023-04-06T13:26:00;14.80;61.40
13794;DHT22;31160;49.500;7.772;2023-04-06T13:28:27;14.80;61.10
13794;DHT22;31160;49.500;7.772;2023-04-06T13:30:54;14.50;60.80
13794;DHT22;31160;49.500;7.772;2023-04-06T13:33:22;14.40;62.40
13794;DHT22;31160;49.500;7.772;2023-04-06T13:35:49;14.30;63.80
13794;DHT22;31160;49.500;7.772;2023-04-06T13:38:16;14.10;62.10
13794;DHT22;31160;49.500;7.772;2023-04-06T13:40:43;14.10;62.70
13794;DHT22;31160;49.500;7.772;2023-04-06T13:43:09;14.10;63.50
13794;DHT22;31160;49.500;7.772;2023-04-06T13:45:37;14.10;63.10
13794;DHT22;31160;49.500;7.772;2023-04-06T13:48:05;14.10;64.00
13794;DHT22;31160;49.500;7.772;2023-04-06T13:50:33;14.20;64.10
13794;DHT22;31160;49.500;7.772;2023-04-06T13:52:59;14.00;63.60
13794;DHT22;31160;49.500;7.772;2023-04-06T13:55:26;14.00;64.70
13794;DHT22;31160;49.500;7.772;2023-04-06T13:57:53;14.30;63.10
13794;DHT22;31160;49.500;7.772;2023-04-06T14:00:21;14.20;63.20
13794;DHT22;31160;49.500;7.772;2023-04-06T14:02:52;14.10;64.70
13794;DHT22;31160;49.500;7.772;2023-04-06T14:05:19;13.90;64.90
13794;DHT22;31160;49.500;7.772;2023-04-06T14:07:46;14.10;64.30
13794;DHT22;31160;49.500;7.772;2023-04-06T14:10:13;14.20;65.50
13794;DHT22;31160;49.500;7.772;2023-04-06T14:12:41;14.10;64.80
13794;DHT22;31160;49.500;7.772;2023-04-06T14:15:11;14.20;64.20
13794;DHT22;31160;49.500;7.772;2023-04-06T14:17:38;14.20;64.10
13794;DHT22;31160;49.500;7.772;2023-04-06T14:20:06;14.30;63.60
13794;DHT22;31160;49.500;7.772;2023-04-06T14:22:33;14.10;64.10
13794;DHT22;31160;49.500;7.772;2023-04-06T14:25:00;14.10;65.50
13794;DHT22;31160;49.500;7.772;2023-04-06T14:27:27;14.20;65.50
13794;DHT22;31160;49.500;7.772;2023-04-06T14:29:54;14.10;65.90
13794;DHT22;31160;49.500;7.772;2023-04-06T14:32:21;14.00;65.00
13794;DHT22;31160;49.500;7.772;2023-04-06T14:34:47;13.80;65.40
13794;DHT22;31160;49.500;7.772;2023-04-06T14:37:14;13.60;65.60
13794;DHT22;31160;49.500;7.772;2023-04-06T14:39:41;13.70;65.10
13794;DHT22;31160;49.500;7.772;2023-04-06T14:42:08;13.60;65.40
13794;DHT22;31160;49.500;7.772;2023-04-06T14:44:34;13.60;66.50
13794;DHT22;31160;49.500;7.772;2023-04-06T14:47:03;13.50;66.50
13794;DHT22;31160;49.500;7.772;2023-04-06T14:49:32;13.50;66.00
13794;DHT22;31160;49.500;7.772;2023-04-06T14:51:59;13.40;67.00
13794;DHT22;31160;49.500;7.772;2023-04-06T14:54:26;13.20;66.70
13794;DHT22;31160;49.500;7.772;2023-04-06T14:56:53;13.30;67.90
13794;DHT22;31160;49.500;7.772;2023-04-06T14:59:20;12.80;69.30
13794;DHT22;31160;49.500;7.772;2023-04-06T15:01:46;12.60;71.80
13794;DHT22;31160;49.500;7.772;2023-04-06T15:04:13;12.50;70.20
13794;DHT22;31160;49.500;7.772;2023-04-06T15:06:41;12.50;71.00
13794;DHT22;31160;49.500;7.772;2023-04-06T15:09:08;12.50;72.10
13794;DHT22;31160;49.500;7.772;2023-04-06T15:11:34;12.70;71.60
13794;DHT22;31160;49.500;7.772;2023-04-06T15:14:01;12.70;72.60
13794;DHT22;31160;49.500;7.772;2023-04-06T15:16:28;13.00;72.80
13794;DHT22;31160;49.500;7.772;2023-04-06T15:18:59;13.10;73.00
13794;DHT22;31160;49.500;7.772;2023-04-06T15:21:26;13.00;73.60
13794;DHT22;31160;49.500;7.772;2023-04-06T15:23:54;12.70;75.80
13794;DHT22;31160;49.500;7.772;2023-04-06T15:26:21;12.50;76.00
13794;DHT22;31160;49.500;7.772;2023-04-06T15:28:48;12.50;77.10
13794;DHT22;31160;49.500;7.772;2023-04-06T15:31:15;12.40;76.80
13794;DHT22;31160;49.500;7.772;2023-04-06T15:34:02;12.40;78.60
13794;DHT22;31160;49.500;7.772;2023-04-06T15:36:29;12.30;78.80
13794;DHT22;31160;49.500;7.772;2023-04-06T15:38:57;12.10;79.60
13794;DHT22;31160;49.500;7.772;2023-04-06T15:41:24;12.40;80.00
13794;DHT22;31160;49.500;7.772;2023-04-06T15:43:54;12.50;79.60
13794;DHT22;31160;49.500;7.772;2023-04-06T15:46:21;12.40;80.30
13794;DHT22;31160;49.500;7.772;2023-04-06T15:48:48;12.30;81.50
13794;DHT22;31160;49.500;7.772;2023-04-06T15:51:15;12.10;82.50
13794;DHT22;31160;49.500;7.772;2023-04-06T15:53:43;11.80;83.90
13794;DHT22;31160;49.500;7.772;2023-04-06T15:56:10;11.40;85.80
13794;DHT22;31160;49.500;7.772;2023-04-06T15:58:39;11.20;87.00